• Join FlightAware (Why Join?)
  • Login
  • US Flag 
07:40AM EDT


 

Airport Tracker/Info


-or-


 

Live Flight TrackerFlight Track Log ✈ N717AN ✈ 23-Apr-2013 ✈ EGLL / LHR - KJFK

Flight Track Log - Related Links

Times and Time Zones

All times are in EDT time to prevent confusion due to time zone crossing. See the N717AN flight status page for this flight to view local times or setup timezone preferences in your user account.

Time Position Orientation Groundspeed Altitude Reporting Facility
EDT Latitude Longitude Course Direction KTS MPH feet Rate Location/Type
05:54AM 51.4655 -0.5172 272° West 172 198 1,700  Level FlightAware ADS-B
05:54AM 51.4659 -0.5371 272° West 171 197 2,300 2,040 Climbing FlightAware ADS-B
05:54AM 51.4662 -0.5543 272° West 172 198 2,700 1,800 Climbing FlightAware ADS-B
05:54AM 51.4664 -0.5671 271° West 175 201 3,000 1,800 Climbing FlightAware ADS-B
05:55AM 51.4663 -0.5842 269° West 180 207 3,400 1,680 Climbing FlightAware ADS-B
05:55AM 51.4663 -0.6002 270° West 186 214 3,700 1,380 Climbing FlightAware ADS-B
05:55AM 51.4661 -0.6069 267° West 190 219 3,800 1,380 Climbing FlightAware ADS-B
05:55AM 51.4650 -0.6186 261° West 203 234 4,000 1,080 Climbing FlightAware ADS-B
05:55AM 51.4632 -0.6314 257° West 215 247 4,100 1,260 Climbing FlightAware ADS-B
05:55AM 51.4588 -0.6558 254° West 230 265 4,500 1,380 Climbing FlightAware ADS-B
05:55AM 51.4570 -0.6658 254° West 237 273 4,600 1,200 Climbing FlightAware ADS-B
05:56AM 51.4561 -0.6723 258° West 239 275 4,700 1,320 Climbing FlightAware ADS-B
05:56AM 51.4554 -0.6802 262° West 241 277 4,800 1,500 Climbing FlightAware ADS-B
05:56AM 51.4550 -0.6857 263° West 242 278 4,900 2,100 Climbing FlightAware ADS-B
05:56AM 51.4543 -0.7059 267° West 245 282 5,300 1,740 Climbing FlightAware ADS-B
05:56AM 51.4540 -0.7362 269° West 252 290 5,700 2,040 Climbing FlightAware ADS-B
05:56AM 51.4539 -0.7660 270° West 253 291 6,400 2,460 Climbing FlightAware ADS-B
05:57AM 51.4537 -0.7947 269° West 259 298 7,000 1,500 Climbing FlightAware ADS-B
05:57AM 51.4534 -0.8268 269° West 279 321 7,200 780 Climbing FlightAware ADS-B
05:57AM 51.4531 -0.8537 269° West 295 339 7,400 960 Climbing FlightAware ADS-B
05:57AM 51.4532 -0.8654 271° West 300 345 7,500 960 Climbing FlightAware ADS-B
05:57AM 51.4538 -0.8814 273° West 307 353 7,600 1,260 Climbing FlightAware ADS-B
05:57AM 51.4551 -0.8966 278° West 311 358 7,800 1,680 Climbing FlightAware ADS-B
05:58AM 51.4570 -0.9115 282° West 313 360 8,000 1,800 Climbing FlightAware ADS-B
05:58AM 51.4594 -0.9264 285° West 315 362 8,200 2,160 Climbing FlightAware ADS-B
05:58AM 51.4646 -0.9557 286° West 318 366 8,700 2,340 Climbing FlightAware ADS-B
05:58AM 51.4735 -1.0009 288° West 324 373 9,500 -180 Climbing FlightAware ADS-B
05:58AM 51.4810 -1.0367 288° West 348 400 8,600 1,980 Descending FlightAware UK
05:59AM 51.4883 -1.0703 288° West 334 384 10,500 4,080 Climbing FlightAware ADS-B
05:59AM 51.5010 -1.1360 287° West 353 406 11,400 2,580 Climbing FlightAware ADS-B
06:00AM 51.5158 -1.2132 287° West 362 417 13,000 840 Climbing FlightAware ADS-B
06:00AM 51.5247 -1.2590 287° West 392 451 12,100 2,280 Descending FlightAware UK
06:00AM 51.5313 -1.2912 287° West 369 425 14,200 2,160 Climbing FlightAware ADS-B
06:00AM 51.5405 -1.3375 287° West 400 460 13,200 1,560 Descending FlightAware UK
06:01AM 51.5473 -1.3705 287° West 372 428 15,000 3,300 Climbing FlightAware ADS-B
06:01AM 51.5629 -1.4504 287° West 377 434 15,600 300 Climbing FlightAware ADS-B
06:02AM 51.5749 -1.5120 287° West 412 474 15,300 3,180 Descending FlightAware UK
06:02AM 51.5800 -1.5366 287° West 379 436 17,300 2,700 Climbing FlightAware ADS-B
06:02AM 51.5882 -1.5761 287° West 418 481 16,400 2,700 Descending FlightAware UK
06:02AM 51.5993 -1.6177 287° West 386 444 18,700 2,640 Climbing FlightAware ADS-B
06:03AM 51.6128 -1.6720 287° West 432 497 18,000 2,400 Descending FlightAware UK
06:03AM 51.6208 -1.7043 287° West 394 453 20,000 5,040 Climbing FlightAware ADS-B
06:03AM 51.6346 -1.7606 292° West 400 460 20,800 2,340 Climbing FlightAware ADS-B
06:04AM 51.6549 -1.8458 291° West 408 470 22,000 2,280 Climbing FlightAware ADS-B
06:04AM 51.6752 -1.9323 291° West 415 478 23,100 120 Climbing FlightAware ADS-B
06:04AM 51.6850 -1.9751 291° West 456 525 22,100 2,220 Descending FlightAware UK
06:05AM 51.6965 -2.0233 291° West 420 483 24,300 2,460 Climbing FlightAware ADS-B
06:05AM 51.7097 -2.0798 291° West 468 539 23,600 2,520 Descending FlightAware UK
06:05AM 51.7226 -2.1351 291° West 421 484 25,900 2,160 Climbing FlightAware ADS-B
06:06AM 51.7344 -2.1852 291° West 474 545 24,900 1,980 Descending FlightAware UK
06:06AM 51.7437 -2.2252 291° West 426 490 26,900 1,980 Climbing FlightAware ADS-B
06:06AM 51.7549 -2.2739 291° West 480 552 25,900 1,860 Descending FlightAware UK
06:06AM 51.7656 -2.3192 291° West 433 498 27,900 1,800 Climbing FlightAware ADS-B
06:07AM 51.7760 -2.3649 291° West 488 562 26,800 2,040 Descending FlightAware UK
06:07AM 51.7879 -2.4164 291° West 431 496 29,000 3,960 Climbing FlightAware ADS-B
06:07AM 51.8072 -2.5011 290° West 437 503 29,800 1,800 Climbing FlightAware ADS-B
06:07AM 51.8139 -2.5345 288° West 437 503 30,200 2,460 Climbing FlightAware ADS-B
06:08AM 51.8214 -2.5775 286° West 433 498 30,800 2,400 Climbing FlightAware ADS-B
06:08AM 51.8322 -2.6511 283° West 429 494 31,700 1,860 Climbing FlightAware ADS-B
06:08AM 51.8356 -2.6858 279° West 430 495 31,900 360 Climbing FlightAware ADS-B
06:09AM 51.8371 -2.7908 271° West 432 497 32,000 -1,680 Climbing FlightAware ADS-B
06:09AM 51.8370 -2.8512 271° West 488 562 30,500  Descending FlightAware UK
06:09AM 51.8373 -2.8870 271° West 428 493 32,000  Climbing FlightAware ADS-B
06:10AM 51.8374 -2.9469 271° West 488 562 30,500  Descending FlightAware UK
06:10AM 51.8378 -2.9876 271° West 427 491 32,000  Climbing FlightAware ADS-B
06:10AM 51.8383 -3.0614 271° West 486 559 30,500 -2,220 Descending FlightAware UK
06:11AM 51.8388 -3.1179 271° West 488 562 30,500 2,280 Level FlightAware UK
06:11AM 51.8390 -3.1780 271° West 430 495 32,000  Climbing FlightAware
06:11AM 51.8395 -3.2326 271° West 492 566 30,500 -2,760 Descending FlightAware UK
06:11AM 51.8400 -3.2906 271° West 496 571 30,500 3,000 Level FlightAware UK
06:12AM 51.8410 -3.3220 271° West 435 501 32,000 1,680 Climbing FlightAware
06:12AM 51.8470 -3.4420 275° West 435 501 32,000 -1,500 Level FlightAware
06:13AM 51.8516 -3.5238 275° West 498 573 30,500  Descending FlightAware UK
06:13AM 51.8540 -3.5790 275° West 437 503 32,000  Climbing FlightAware
06:13AM 51.8576 -3.6400 275° West 498 573 30,500  Descending FlightAware UK
06:14AM 51.8640 -3.7300 275° West 438 504 32,000  Climbing FlightAware
06:14AM 51.8703 -3.8350 275° West 498 573 30,500  Descending FlightAware UK
06:14AM 51.8700 -3.8420 275° West 438 504 32,000  Climbing FlightAware
06:15AM 51.8712 -3.9726 275° West 500 575 30,500  Descending FlightAware UK
06:15AM 51.8710 -4.0300 275° West 440 506 32,000  Climbing FlightAware
06:16AM 51.8717 -4.1106 275° West 500 575 30,500 -2,400 Descending FlightAware UK
06:16AM 51.8720 -4.1696 270° West 500 575 30,500 3,600 Level FlightAware UK
06:16AM 51.8720 -4.1770 270° West 440 506 32,000  Climbing FlightAware
06:16AM 51.8724 -4.2476 270° West 500 575 30,500  Descending FlightAware UK
06:17AM 51.8740 -4.3060 270° West 439 505 32,000  Climbing FlightAware
06:17AM 51.8801 -4.4043 270° West 498 573 30,500  Descending FlightAware UK
06:17AM 51.8810 -4.4170 270° West 439 505 32,000  Climbing FlightAware
06:18AM 51.8858 -4.5026 270° West 500 575 30,500 -2,460 Descending FlightAware UK
06:18AM 51.8887 -4.5614 275° West 500 575 30,500 2,880 Level FlightAware UK
06:18AM 51.8900 -4.5890 275° West 440 506 32,000  Climbing FlightAware
06:19AM 51.8944 -4.6793 275° West 500 575 30,500  Descending FlightAware UK
06:19AM 51.8960 -4.7200 275° West 439 505 32,000  Climbing FlightAware
06:19AM 51.9000 -4.7970 275° West 500 575 30,500 -2,460 Descending FlightAware UK
06:19AM 51.9026 -4.8558 274° West 500 575 30,500 4,260 Level FlightAware UK
06:19AM 51.9020 -4.8430 274° West 438 504 32,000  Climbing FlightAware
06:20AM 51.9053 -4.9144 274° West 500 575 30,500 -2,340 Descending FlightAware UK
06:20AM 51.9093 -4.9919 275° West 500 575 30,500 3,000 Level FlightAware UK
06:20AM 51.9100 -4.9990 275° West 437 503 32,000  Climbing FlightAware
06:21AM 51.9136 -5.0706 275° West 500 575 30,500  Descending FlightAware UK
06:21AM 51.9170 -5.1320 275° West 437 503 32,000  Climbing FlightAware
06:21AM 51.9218 -5.2259 275° West 500 575 30,500  Descending FlightAware UK
06:22AM 51.9240 -5.2780 275° West 437 503 32,000  Climbing FlightAware
06:22AM 51.9301 -5.4014 275° West 500 575 30,500  Descending FlightAware UK
06:22AM 51.9300 -5.4050 275° West 436 502 32,000  Climbing FlightAware
06:23AM 51.9339 -5.4796 275° West 500 575 30,500 -2,460 Descending FlightAware UK
06:23AM 51.9366 -5.5381 274° West 500 575 30,500 3,420 Level FlightAware UK
06:23AM 51.9370 -5.5510 274° West 436 502 32,000  Climbing FlightAware
06:23AM 51.9402 -5.6160 274° West 500 575 30,500 -2,700 Descending FlightAware UK
06:24AM 51.9428 -5.6745 274° West 498 573 30,500 4,680 Level FlightAware UK
06:24AM 51.9420 -5.6560 274° West 436 502 32,000  Climbing FlightAware
06:24AM 51.9454 -5.7329 274° West 500 575 30,500 -2,580 Descending FlightAware UK
06:24AM 51.9481 -5.7913 274° West 500 575 30,500 2,700 Level FlightAware UK
06:24AM 51.9500 -5.8300 274° West 436 502 32,000  Climbing FlightAware
06:25AM 51.9525 -5.8887 274° West 500 575 30,500 -2,940 Descending FlightAware UK
06:25AM 51.9552 -5.9472 274° West 498 573 30,400 3,600 Descending FlightAware UK
06:25AM 51.9560 -5.9600 274° West 435 501 32,000 240 Climbing FlightAware
06:25AM 51.9585 -6.0244 274° West 500 575 30,500  Descending FlightAware UK
06:26AM 51.9610 -6.0900 274° West 435 501 32,000  Climbing FlightAware
06:26AM 51.9641 -6.1605 274° West 500 575 30,500 -2,460 Descending FlightAware UK
06:26AM 51.9665 -6.2188 274° West 500 575 30,500 3,420 Level FlightAware UK
06:27AM 51.9670 -6.2360 274° West 433 498 32,000  Climbing FlightAware
06:27AM 51.9695 -6.2964 274° West 500 575 30,500 -2,700 Descending FlightAware UK
06:27AM 51.9719 -6.3545 274° West 500 575 30,500 3,720 Level FlightAware UK
06:27AM 51.9730 -6.3690 274° West 433 498 32,000 -300 Climbing FlightAware
06:28AM 51.9751 -6.4320 274° West 498 573 30,400 -2,700 Descending FlightAware UK
06:28AM 51.9774 -6.4902 274° West 498 573 30,400 3,540 Level FlightAware UK
06:28AM 51.9780 -6.5160 274° West 432 497 32,000  Climbing FlightAware
06:28AM 51.9803 -6.5677 274° West 498 573 30,400 -2,940 Descending FlightAware UK
06:29AM 51.9825 -6.6259 274° West 498 573 30,400 3,840 Level FlightAware UK
06:29AM 51.9830 -6.6390 274° West 433 498 32,000  Climbing FlightAware
06:29AM 51.9854 -6.7036 274° West 498 573 30,400 -2,760 Descending FlightAware UK
06:29AM 51.9875 -6.7619 273° West 498 573 30,400 4,140 Level FlightAware UK
06:29AM 51.9880 -6.7690 273° West 434 499 32,000 240 Climbing FlightAware
06:30AM 51.9903 -6.8398 273° West 500 575 30,500 -2,460 Descending FlightAware UK
06:30AM 51.9924 -6.8982 273° West 500 575 30,500 3,420 Level FlightAware UK
06:30AM 51.9930 -6.9170 273° West 433 498 32,000  Climbing FlightAware
06:30AM 51.9952 -6.9760 273° West 500 575 30,500 -2,880 Descending FlightAware UK
06:31AM 51.9974 -7.0343 274° West 498 573 30,400 3,720 Descending FlightAware UK
06:31AM 51.9980 -7.0450 274° West 432 497 32,000 240 Climbing FlightAware
06:31AM 52.0002 -7.1119 274° West 498 573 30,500 -2,520 Descending FlightAware UK
06:31AM 52.0019 -7.1694 273° West 500 575 30,500 3,300 Level FlightAware UK
06:31AM 52.0030 -7.1900 273° West 432 497 32,000  Climbing FlightAware
06:32AM 52.0044 -7.2469 273° West 500 575 30,500 -2,760 Descending FlightAware UK
06:32AM 52.0065 -7.3049 273° West 500 575 30,500 3,600 Level FlightAware UK
06:32AM 52.0070 -7.3200 273° West 431 496 32,000  Climbing FlightAware
06:32AM 52.0094 -7.3823 273° West 500 575 30,500 -2,580 Descending FlightAware UK
06:33AM 52.0113 -7.4403 273° West 498 573 30,500 3,900 Level FlightAware UK
06:33AM 52.0110 -7.4490 273° West 431 496 32,000  Climbing FlightAware
06:33AM 52.0137 -7.5175 273° West 498 573 30,500 -2,460 Descending FlightAware UK
06:33AM 52.0154 -7.5754 273° West 500 575 30,500 3,420 Level FlightAware UK
06:34AM 52.0150 -7.5930 273° West 431 496 32,000  Climbing FlightAware
06:34AM 52.0175 -7.6527 273° West 500 575 30,500 -2,700 Descending FlightAware UK
06:34AM 52.0191 -7.7107 273° West 498 573 30,500 3,720 Level FlightAware UK
06:34AM 52.0190 -7.7240 273° West 431 496 32,000  Climbing FlightAware
06:35AM 52.0212 -7.7881 273° West 498 573 30,500 -2,520 Descending FlightAware UK
06:35AM 52.0228 -7.8461 272° West 498 573 30,500 3,300 Level FlightAware UK
06:35AM 52.0230 -7.8560 272° West 432 497 32,000  Climbing FlightAware
06:35AM 52.0248 -7.9236 272° West 500 575 30,500 -2,760 Descending FlightAware UK
06:36AM 52.0264 -7.9817 273° West 498 573 30,500 3,600 Level FlightAware UK
06:36AM 52.0260 -7.9950 273° West 432 497 32,000  Climbing FlightAware
06:36AM 52.0277 -8.0591 273° West 500 575 30,500 -2,580 Descending FlightAware UK
06:36AM 52.0292 -8.1172 272° West 500 575 30,500 3,900 Level FlightAware UK
06:36AM 52.0290 -8.1150 272° West 431 496 32,000  Climbing FlightAware
06:37AM 52.0312 -8.1946 272° West 498 573 30,500 -2,640 Descending FlightAware UK
06:37AM 52.0327 -8.2527 272° West 498 573 30,400 -180 Descending FlightAware UK
06:37AM 52.0340 -8.3107 272° West 498 573 30,400 120 Level FlightAware UK
06:38AM 52.0352 -8.3682 272° West 498 573 30,500 120 Climbing FlightAware UK
06:38AM 52.0365 -8.4264 272° West 498 573 30,500  Level FlightAware UK
06:38AM 52.0378 -8.4846 272° West 500 575 30,500  Level FlightAware UK
06:38AM 52.0391 -8.5428 272° West 500 575 30,500  Level FlightAware UK
06:39AM 52.0402 -8.6011 272° West 500 575 30,500 3,180 Level FlightAware UK
06:39AM 52.0410 -8.6290 272° West 432 497 32,000  Climbing FlightAware
06:39AM 52.0424 -8.6981 272° West 498 573 30,500 -2,400 Descending FlightAware UK
06:40AM 52.0436 -8.7565 272° West 500 575 30,500  Level FlightAware UK
06:40AM 52.0448 -8.8149 272° West 500 575 30,500  Level FlightAware UK
06:40AM 52.0458 -8.8733 272° West 500 575 30,500  Level FlightAware UK
06:40AM 52.0470 -8.9316 272° West 500 575 30,500  Level FlightAware UK
06:41AM 52.0481 -8.9899 272° West 500 575 30,500 960 Level FlightAware UK
06:42AM 52.0520 -9.2200 272° West 431 496 32,000 420 Climbing FlightAware
06:44AM 52.0887 -9.5079 282° West  Level Estimated
06:44AM 52.0570 -9.6090 282° West 432 497 32,000  Level FlightAware
06:47AM 52.1156 -10.0834 282° West  Level Estimated
06:47AM 52.0630 -10.1600 282° West 432 497 32,000  Level FlightAware
06:48AM 52.0640 -10.4070 270° West 432 497 32,000  Level FlightAware
06:51AM 52.1163 -10.8512 281° West  Level Estimated
06:52AM 52.1378 -11.0379 281° West  Level Estimated
06:52AM 52.0660 -11.0860 281° West 432 497 32,000  Level FlightAware
06:53AM 52.0660 -11.2860 270° West 432 497 32,000  Level FlightAware
06:53AM 52.0650 -11.4320 269° West 432 497 32,000  Level FlightAware
06:54AM 52.0650 -11.5680 270° West 432 497 32,000  Level FlightAware
06:55AM 52.0630 -11.7000 269° West 432 497 32,000  Level FlightAware
06:56AM 52.0620 -11.8380 269° West 432 497 32,000  Level FlightAware
06:56AM 52.0610 -11.9490 269° West 432 497 32,000  Level FlightAware
06:57AM 52.0600 -12.0590 269° West 432 497 32,000  Level FlightAware
06:58AM 52.0580 -12.1700 268° West 432 497 32,000  Level FlightAware
06:58AM 52.0570 -12.2800 269° West 432 497 32,000  Level FlightAware
06:59AM 52.0560 -12.3910 269° West 432 497 32,000  Level FlightAware
07:00AM 52.0540 -12.5290 269° West 432 497 32,000  Level FlightAware
07:01AM 52.0530 -12.6390 269° West 432 497 32,000  Level FlightAware
07:01AM 52.0520 -12.7500 269° West 432 497 32,000  Level FlightAware
07:02AM 52.0510 -12.8600 269° West 432 497 32,000  Level FlightAware
07:03AM 52.0500 -12.9710 269° West 432 497 32,000  Level FlightAware
07:03AM 52.0480 -13.1090 269° West 432 497 32,000  Level FlightAware
07:04AM 52.0470 -13.2200 269° West 432 497 32,000  Level FlightAware
07:07AM 52.0918 -13.6822 279° West  Level Estimated
07:08AM 52.1095 -13.8698 279° West  Level Estimated
07:09AM 52.1269 -14.0576 279° West  Level Estimated
07:10AM 52.1439 -14.2455 278° West  Level Estimated
07:11AM 52.1607 -14.4335 278° West  Level Estimated
07:12AM 52.1772 -14.6217 278° West  Level Estimated
07:13AM 52.1933 -14.8096 278° West  Level Estimated
07:14AM 52.2091 -14.9977 278° West  Level Estimated
07:15AM 52.2247 -15.1858 278° West  Level Estimated
07:16AM 52.2399 -15.3741 278° West  Level Estimated
07:17AM 52.2548 -15.5626 277° West  Level Estimated
07:18AM 52.2695 -15.7511 277° West  Level Estimated
07:19AM 52.2838 -15.9398 277° West  Level Estimated
07:20AM 52.2978 -16.1286 277° West  Level Estimated
07:21AM 52.3116 -16.3175 277° West  Level Estimated
07:22AM 52.3250 -16.5066 277° West  Level Estimated
07:23AM 52.3381 -16.6957 277° West  Level Estimated
07:24AM 52.3509 -16.8850 276° West  Level Estimated
07:25AM 52.3635 -17.0743 276° West  Level Estimated
07:26AM 52.3759 -17.2676 276° West  Level Estimated
07:27AM 52.3881 -17.4610 276° West  Level Estimated
07:28AM 52.3997 -17.6505 276° West  Level Estimated
07:29AM 52.4109 -17.8401 276° West  Level Estimated
07:30AM 52.4219 -18.0297 275° West  Level Estimated
07:31AM 52.4326 -18.2195 275° West  Level Estimated
07:32AM 52.4430 -18.4093 275° West  Level Estimated
07:33AM 52.4531 -18.5992 275° West  Level Estimated
07:34AM 52.4628 -18.7893 275° West  Level Estimated
07:35AM 52.4723 -18.9794 275° West  Level Estimated
07:36AM 52.4814 -19.1695 275° West  Level Estimated
07:37AM 52.4903 -19.3598 274° West  Level Estimated
07:38AM 52.4989 -19.5501 274° West  Level Estimated
07:38AM 52.0000 -20.0000 274° West 425 489 32,000  Level ETMS Enhanced Traffic Management System
07:39AM 52.5071 -19.7410 274° West  Level Estimated
07:40AM 52.5151 -19.9319 274° West  Level Estimated
07:41AM 52.5227 -20.1229 274° West  Level Estimated
07:42AM 52.5300 -20.3139 274° West  Level Estimated
07:43AM 52.5371 -20.5050 274° West  Level Estimated
07:44AM 52.0493 -21.3435 273° West 425 489 32,000  Level FlightAware Transoceanic
07:45AM 52.0551 -21.5356 273° West 425 489 32,000  Level FlightAware Transoceanic
07:46AM 52.0606 -21.7278 273° West 425 489 32,000  Level FlightAware Transoceanic
07:47AM 52.0658 -21.9200 272° West 425 489 32,000  Level FlightAware Transoceanic
07:48AM 52.0706 -22.1123 272° West 425 489 32,000  Level FlightAware Transoceanic
07:49AM 52.0752 -22.3047 272° West 425 489 32,000  Level FlightAware Transoceanic
07:50AM 52.0794 -22.4970 272° West 425 489 32,000  Level FlightAware Transoceanic
07:51AM 52.0833 -22.6894 272° West 425 489 32,000  Level FlightAware Transoceanic
07:52AM 52.0869 -22.8819 272° West 425 489 32,000  Level FlightAware Transoceanic
07:53AM 52.0902 -23.0743 272° West 425 489 32,000  Level FlightAware Transoceanic
07:54AM 52.0932 -23.2668 271° West 425 489 32,000  Level FlightAware Transoceanic
07:55AM 52.0959 -23.4593 271° West 425 489 32,000  Level FlightAware Transoceanic
07:56AM 52.0982 -23.6519 271° West 425 489 32,000  Level FlightAware Transoceanic
07:57AM 52.1003 -23.8444 271° West 425 489 32,000  Level FlightAware Transoceanic
07:58AM 52.1020 -24.0370 271° West 425 489 32,000  Level FlightAware Transoceanic
07:59AM 52.1034 -24.2296 271° West 425 489 32,000  Level FlightAware Transoceanic
08:00AM 52.1045 -24.4222 270° West 425 489 32,000  Level FlightAware Transoceanic
08:01AM 52.1053 -24.6148 270° West 425 489 32,000  Level FlightAware Transoceanic
08:02AM 52.1058 -24.8074 270° West 425 489 32,000  Level FlightAware Transoceanic
08:03AM 52.1059 -25.0000 270° West 425 489 32,000  Level FlightAware Transoceanic
08:04AM 52.1058 -25.1926 270° West 425 489 32,000  Level FlightAware Transoceanic
08:05AM 52.1053 -25.3852 270° West 425 489 32,000  Level FlightAware Transoceanic
08:06AM 52.1045 -25.5778 270° West 425 489 32,000  Level FlightAware Transoceanic
08:07AM 52.1034 -25.7704 269° West 425 489 32,000  Level FlightAware Transoceanic
08:08AM 52.1020 -25.9630 269° West 425 489 32,000  Level FlightAware Transoceanic
08:09AM 52.1003 -26.1556 269° West 425 489 32,000  Level FlightAware Transoceanic
08:10AM 52.0982 -26.3481 269° West 425 489 32,000  Level FlightAware Transoceanic
08:11AM 52.0959 -26.5407 269° West 425 489 32,000  Level FlightAware Transoceanic
08:12AM 52.0932 -26.7332 269° West 425 489 32,000  Level FlightAware Transoceanic
08:13AM 52.0902 -26.9257 268° West 425 489 32,000  Level FlightAware Transoceanic
08:14AM 52.0869 -27.1181 268° West 425 489 32,000  Level FlightAware Transoceanic
08:15AM 52.0833 -27.3106 268° West 425 489 32,000  Level FlightAware Transoceanic
08:16AM 52.0794 -27.5030 268° West 425 489 32,000  Level FlightAware Transoceanic
08:17AM 52.0752 -27.6953 268° West 425 489 32,000  Level FlightAware Transoceanic
08:18AM 52.0706 -27.8877 268° West 425 489 32,000  Level FlightAware Transoceanic
08:19AM 52.0658 -28.0800 268° West 425 489 32,000  Level FlightAware Transoceanic
08:20AM 52.0606 -28.2722 267° West 425 489 32,000  Level FlightAware Transoceanic
08:21AM 52.0551 -28.4644 267° West 425 489 32,000  Level FlightAware Transoceanic
08:22AM 52.0493 -28.6565 267° West 425 489 32,000  Level FlightAware Transoceanic
08:23AM 52.0432 -28.8486 267° West 425 489 32,000  Level FlightAware Transoceanic
08:24AM 52.0368 -29.0407 267° West 425 489 32,000  Level FlightAware Transoceanic
08:25AM 52.0301 -29.2327 267° West 425 489 32,000  Level FlightAware Transoceanic
08:26AM 52.0230 -29.4246 267° West 425 489 32,000  Level FlightAware Transoceanic
08:27AM 52.0157 -29.6165 266° West 425 489 32,000  Level FlightAware Transoceanic
08:28AM 52.0080 -29.8083 266° West 425 489 32,000  Level FlightAware Transoceanic
08:29AM 52.0001 -29.9970 266° West  Level FlightAware Approximate
08:30AM 51.9917 -30.1857 266° West  Level FlightAware Approximate
08:31AM 52.0076 -30.1828 274° West  Level FlightAware Approximate
08:32AM 52.0152 -30.3716 274° West  Level FlightAware Approximate
08:33AM 52.0225 -30.5605 274° West  Level FlightAware Approximate
08:34AM 52.0294 -30.7494 274° West  Level FlightAware Approximate
08:35AM 52.0361 -30.9384 273° West  Level FlightAware Approximate
08:36AM 52.0424 -31.1275 273° West  Level FlightAware Approximate
08:37AM 52.0485 -31.3166 273° West  Level FlightAware Approximate
08:38AM 52.0542 -31.5058 273° West  Level FlightAware Approximate
08:39AM 52.0597 -31.6950 273° West  Level FlightAware Approximate
08:40AM 52.0648 -31.8842 273° West  Level FlightAware Approximate
08:41AM 52.0697 -32.0735 272° West  Level FlightAware Approximate
08:42AM 52.0742 -32.2628 272° West  Level FlightAware Approximate
08:43AM 52.0785 -32.4522 272° West  Level FlightAware Approximate
08:44AM 52.0824 -32.6416 272° West  Level FlightAware Approximate
08:45AM 52.0860 -32.8310 272° West  Level FlightAware Approximate
08:46AM 52.0894 -33.0205 272° West  Level FlightAware Approximate
08:47AM 52.0924 -33.2100 272° West  Level FlightAware Approximate
08:48AM 52.0951 -33.3995 271° West  Level FlightAware Approximate
08:49AM 52.0975 -33.5890 271° West  Level FlightAware Approximate
08:50AM 52.0996 -33.7786 271° West  Level FlightAware Approximate
08:51AM 52.1014 -33.9682 271° West  Level FlightAware Approximate
08:52AM 52.1029 -34.1577 271° West  Level FlightAware Approximate
08:53AM 52.1041 -34.3474 271° West  Level FlightAware Approximate
08:54AM 52.1050 -34.5370 271° West  Level FlightAware Approximate
08:55AM 52.1056 -34.7266 270° West  Level FlightAware Approximate
08:56AM 52.1059 -34.9162 270° West  Level FlightAware Approximate
08:57AM 52.1059 -35.1058 270° West  Level FlightAware Approximate
08:58AM 52.1056 -35.2954 270° West  Level FlightAware Approximate
08:59AM 52.1049 -35.4850 270° West  Level FlightAware Approximate
09:00AM 52.1040 -35.6746 270° West  Level FlightAware Approximate
09:01AM 52.1028 -35.8643 269° West  Level FlightAware Approximate
09:02AM 52.1012 -36.0538 269° West  Level FlightAware Approximate
09:03AM 52.0994 -36.2434 269° West  Level FlightAware Approximate
09:04AM 52.0972 -36.4330 269° West  Level FlightAware Approximate
09:05AM 52.0948 -36.6225 269° West  Level FlightAware Approximate
09:06AM 52.0920 -36.8120 269° West  Level FlightAware Approximate
09:07AM 52.0890 -37.0015 269° West  Level FlightAware Approximate
09:08AM 52.0856 -37.1909 268° West  Level FlightAware Approximate
09:09AM 52.0820 -37.3804 268° West  Level FlightAware Approximate
09:10AM 52.0780 -37.5698 268° West  Level FlightAware Approximate
09:11AM 52.0737 -37.7591 268° West  Level FlightAware Approximate
09:12AM 52.0691 -37.9485 268° West  Level FlightAware Approximate
09:13AM 52.0643 -38.1378 268° West  Level FlightAware Approximate
09:14AM 52.0591 -38.3270 268° West  Level FlightAware Approximate
09:15AM 52.0536 -38.5162 267° West  Level FlightAware Approximate
09:16AM 52.0478 -38.7053 267° West  Level FlightAware Approximate
09:17AM 52.0417 -38.8945 267° West  Level FlightAware Approximate
09:18AM 52.0353 -39.0835 267° West  Level FlightAware Approximate
09:19AM 52.0286 -39.2725 267° West  Level FlightAware Approximate
09:20AM 52.0216 -39.4619 267° West  Level FlightAware Approximate
09:21AM 52.0143 -39.6512 266° West  Level FlightAware Approximate
09:22AM 52.0067 -39.8404 266° West  Level FlightAware Approximate
09:23AM 51.9953 -40.0287 255° West  Level FlightAware Approximate
09:24AM 51.9653 -40.2118 255° West  Level FlightAware Approximate
09:25AM 51.9351 -40.3948 255° West  Level FlightAware Approximate
09:26AM 51.9045 -40.5774 255° West  Level FlightAware Approximate
09:27AM 51.8736 -40.7599 255° West  Level FlightAware Approximate
09:28AM 51.8425 -40.9420 255° West  Level FlightAware Approximate
09:29AM 51.8111 -41.1240 254° West  Level FlightAware Approximate
09:30AM 51.7797 -41.3057 255° West  Level FlightAware Approximate
09:31AM 51.7498 -41.4881 255° West  Level FlightAware Approximate
09:32AM 51.7197 -41.6702 255° West  Level FlightAware Approximate
09:33AM 51.6893 -41.8520 255° West  Level FlightAware Approximate
09:34AM 51.6586 -42.0336 255° West  Level FlightAware Approximate
09:35AM 51.6276 -42.2150 255° West  Level FlightAware Approximate
09:36AM 51.5964 -42.3961 255° West  Level FlightAware Approximate
09:37AM 51.5649 -42.5771 255° West  Level FlightAware Approximate
09:38AM 51.5349 -42.7584 255° West  Level FlightAware Approximate
09:39AM 51.5045 -42.9396 255° West  Level FlightAware Approximate
09:40AM 51.4739 -43.1205 255° West  Level FlightAware Approximate
09:41AM 51.4430 -43.3012 255° West  Level FlightAware Approximate
09:42AM 51.4118 -43.4816 255° West  Level FlightAware Approximate
09:43AM 51.3803 -43.6617 254° West  Level FlightAware Approximate
09:44AM 51.3484 -43.8416 253° West  Level FlightAware Approximate
09:45AM 51.3147 -44.0205 253° West  Level FlightAware Approximate
09:46AM 51.2808 -44.1991 253° West  Level FlightAware Approximate
09:47AM 51.2465 -44.3774 253° West  Level FlightAware Approximate
09:48AM 51.2120 -44.5555 253° West  Level FlightAware Approximate
09:49AM 51.1772 -44.7333 253° West  Level FlightAware Approximate
09:50AM 51.1421 -44.9109 253° West  Level FlightAware Approximate
09:51AM 51.1068 -45.0881 252° West  Level FlightAware Approximate
09:52AM 51.0712 -45.2651 252° West  Level FlightAware Approximate
09:53AM 51.0353 -45.4418 252° West  Level FlightAware Approximate
09:54AM 50.9992 -45.6183 252° West  Level FlightAware Approximate
09:55AM 50.9628 -45.7945 252° West  Level FlightAware Approximate
09:56AM 50.9262 -45.9704 252° West  Level FlightAware Approximate
09:57AM 50.8892 -46.1460 252° West  Level FlightAware Approximate
09:58AM 50.8520 -46.3213 251° West  Level FlightAware Approximate
09:59AM 50.8146 -46.4964 251° West  Level FlightAware Approximate
10:00AM 50.7769 -46.6712 251° West  Level FlightAware Approximate
10:01AM 50.7389 -46.8457 251° West  Level FlightAware Approximate
10:02AM 50.7007 -47.0199 251° West  Level FlightAware Approximate
10:03AM 50.6622 -47.1938 251° West  Level FlightAware Approximate
10:04AM 50.6234 -47.3675 251° West  Level FlightAware Approximate
10:05AM 50.5844 -47.5408 251° West  Level FlightAware Approximate
10:06AM 50.5452 -47.7139 250° West  Level FlightAware Approximate
10:07AM 50.5056 -47.8867 250° West  Level FlightAware Approximate
10:08AM 50.4659 -48.0591 250° West  Level FlightAware Approximate
10:09AM 50.4258 -48.2313 250° West  Level FlightAware Approximate
10:10AM 50.3855 -48.4032 250° West  Level FlightAware Approximate
10:11AM 50.3449 -48.5752 250° West  Level FlightAware Approximate
10:11AM 49.9500 -50.1167 249° West 450 518 32,000  Level Moncton Center
10:12AM 50.3040 -48.7470 250° West  Level FlightAware Approximate
10:12AM 49.9000 -50.2833 245° Southwest 450 518 32,000  Level Moncton Center
10:13AM 50.2627 -48.9191 249° West  Level FlightAware Approximate
10:13AM 49.8667 -50.4833 256° West 450 518 32,000  Level Moncton Center
10:14AM 50.2211 -49.0909 249° West  Level FlightAware Approximate
10:14AM 49.8000 -50.6500 238° Southwest 450 518 32,000  Level Moncton Center
10:15AM 50.1793 -49.2625 249° West  Level FlightAware Approximate
10:16AM 50.1372 -49.4337 249° West  Level FlightAware Approximate
10:20AM 49.5090 -51.8570 238° Southwest 455 524 32,000  Level FlightAware
10:21AM 49.4710 -51.9880 246° West 455 524 32,000  Level FlightAware
10:21AM 49.4380 -52.1030 246° West 456 525 32,000  Level FlightAware
10:22AM 49.4050 -52.2150 246° West 453 521 32,000  Level FlightAware
10:23AM 49.3710 -52.3330 246° West 453 521 32,000  Level FlightAware
10:24AM 49.3270 -52.4780 245° Southwest 460 529 32,000  Level FlightAware
10:24AM 49.2980 -52.5760 246° West 460 529 32,000  Level FlightAware
10:25AM 49.2540 -52.7230 245° Southwest 461 531 32,000  Level FlightAware
10:26AM 49.2180 -52.8420 245° Southwest 460 529 32,000  Level FlightAware
10:26AM 49.1770 -52.9800 246° West 458 527 32,000  Level FlightAware
10:27AM 49.1380 -53.1070 245° Southwest 457 526 32,000  Level FlightAware
10:28AM 49.1020 -53.2240 245° Southwest 455 524 32,000  Level FlightAware
10:28AM 49.0720 -53.3230 245° Southwest 455 524 32,000  Level FlightAware
10:29AM 49.0320 -53.4520 245° Southwest 455 524 32,000  Level FlightAware
10:30AM 48.9920 -53.5810 245° Southwest 454 522 32,000  Level FlightAware
10:31AM 48.9580 -53.6920 245° Southwest 456 525 32,000  Level FlightAware
10:31AM 48.9160 -53.8250 244° Southwest 456 525 32,000  Level FlightAware
10:32AM 48.8800 -53.9380 244° Southwest 456 525 32,000  Level FlightAware
10:33AM 48.8380 -54.0710 244° Southwest 454 522 32,000  Level FlightAware
10:33AM 48.8020 -54.1850 244° Southwest 452 520 32,000  Level FlightAware
10:34AM 48.7650 -54.3010 244° Southwest 449 517 32,000  Level FlightAware
10:35AM 48.7350 -54.3960 244° Southwest 449 517 32,000  Level FlightAware
10:35AM 48.6910 -54.5320 244° Southwest 449 517 32,000  Level FlightAware
10:36AM 48.6620 -54.6210 244° Southwest 449 517 32,000  Level FlightAware
10:37AM 48.6090 -54.7860 244° Southwest 447 514 32,000  Level FlightAware
10:38AM 48.5590 -54.9370 243° Southwest 446 513 32,000  Level FlightAware
10:39AM 48.4850 -55.1630 244° Southwest 440 506 32,000  Level FlightAware
10:40AM 48.4410 -55.2930 243° Southwest 440 506 32,000  Level FlightAware
10:41AM 48.3970 -55.4260 244° Southwest 440 506 32,000  Level FlightAware
10:42AM 48.3420 -55.5930 244° Southwest 436 502 32,000  Level FlightAware
10:42AM 48.3130 -55.6780 243° Southwest 436 502 32,000  Level FlightAware
10:43AM 48.2620 -55.8290 243° Southwest 436 502 32,000  Level FlightAware
10:44AM 48.2090 -55.9850 243° Southwest 434 499 32,000  Level FlightAware
10:45AM 48.1780 -56.0760 243° Southwest 434 499 32,000  Level FlightAware
10:46AM 48.1470 -56.1670 243° Southwest 434 499 32,000  Level FlightAware
10:46AM 48.1080 -56.2810 243° Southwest 434 499 32,000  Level FlightAware
10:47AM 48.0530 -56.4340 242° Southwest 427 491 32,000  Level FlightAware
10:48AM 48.0220 -56.5230 243° Southwest 427 491 32,000  Level FlightAware
10:48AM 47.9900 -56.6110 242° Southwest 427 491 32,000  Level FlightAware
10:49AM 47.9360 -56.7720 243° Southwest 416 479 32,000  Level FlightAware
10:50AM 47.9070 -56.8510 241° Southwest 416 479 32,000  Level FlightAware
10:51AM 47.8690 -56.9590 242° Southwest 416 479 32,000  Level FlightAware
10:51AM 47.8460 -57.0240 242° Southwest 416 479 32,000  Level FlightAware
10:52AM 47.8070 -57.1310 242° Southwest 416 479 32,000  Level FlightAware
10:53AM 47.7770 -57.2170 243° Southwest 416 479 32,000  Level FlightAware
10:53AM 47.7460 -57.3030 242° Southwest 416 479 32,000  Level FlightAware
10:54AM 47.7080 -57.4110 242° Southwest 416 479 32,000  Level FlightAware
10:55AM 47.6770 -57.4960 242° Southwest 416 479 32,000  Level FlightAware
10:56AM 47.6460 -57.5820 242° Southwest 416 479 32,000  Level FlightAware
10:56AM 47.6150 -57.6680 242° Southwest 416 479 32,000  Level FlightAware
10:57AM 47.5850 -57.7540 243° Southwest 416 479 32,000  Level FlightAware
10:58AM 47.5460 -57.8610 242° Southwest 416 479 32,000  Level FlightAware
10:58AM 47.5160 -57.9460 242° Southwest 416 479 32,000  Level FlightAware
10:59AM 47.4850 -58.0320 242° Southwest 416 479 32,000  Level FlightAware
11:01AM 47.2970 -58.5260 241° Southwest 394 453 32,000  Level FlightAware
11:02AM 47.2610 -58.6200 241° Southwest 396 456 32,000  Level FlightAware
11:03AM 47.2260 -58.7150 242° Southwest 397 457 32,000  Level FlightAware
11:04AM 47.1860 -58.8180 240° Southwest 397 457 32,000  Level FlightAware
11:04AM 47.1500 -58.9140 241° Southwest 398 458 32,000  Level FlightAware
11:05AM 47.1130 -59.0100 241° Southwest 400 460 32,000  Level FlightAware
11:06AM 47.0740 -59.1120 241° Southwest 401 461 32,000  Level FlightAware
11:06AM 47.0380 -59.2060 241° Southwest 402 463 32,000  Level FlightAware
11:07AM 46.9950 -59.3150 240° Southwest 402 463 32,000  Level FlightAware
11:08AM 46.9580 -59.4110 241° Southwest 402 463 32,000  Level FlightAware
11:08AM 46.9220 -59.5050 241° Southwest 402 463 32,000  Level FlightAware
11:09AM 46.8810 -59.6090 240° Southwest 403 464 32,000  Level FlightAware
11:10AM 46.8430 -59.7060 240° Southwest 403 464 32,000  Level FlightAware
11:11AM 46.8020 -59.8100 240° Southwest 402 463 32,000  Level FlightAware
11:11AM 46.7660 -59.9010 240° Southwest 402 463 32,000  Level FlightAware
11:12AM 46.7230 -60.0100 240° Southwest 403 464 32,000  Level FlightAware
11:13AM 46.6850 -60.1050 240° Southwest 402 463 32,000  Level FlightAware
11:13AM 46.6470 -60.1990 240° Southwest 403 464 32,000  Level FlightAware
11:14AM 46.6060 -60.3010 240° Southwest 404 465 32,000  Level FlightAware
11:15AM 46.5690 -60.3930 240° Southwest 405 466 32,000  Level FlightAware
11:15AM 46.5310 -60.4880 240° Southwest 405 466 32,000  Level FlightAware
11:16AM 46.4870 -60.5970 240° Southwest 406 467 32,000  Level FlightAware
11:17AM 46.4490 -60.6900 239° Southwest 406 467 32,000  Level FlightAware
11:18AM 46.4080 -60.7910 240° Southwest 406 467 32,000  Level FlightAware
11:18AM 46.3690 -60.8860 239° Southwest 406 467 32,000  Level FlightAware
11:19AM 46.3300 -60.9800 239° Southwest 407 468 32,000  Level FlightAware
11:20AM 46.2860 -61.0860 239° Southwest 407 468 32,000  Level FlightAware
11:20AM 46.2480 -61.1790 239° Southwest 406 467 32,000  Level FlightAware
11:21AM 46.2050 -61.2820 239° Southwest 407 468 32,000  Level FlightAware
11:22AM 46.1660 -61.3760 239° Southwest 405 466 32,000  Level FlightAware
11:22AM 46.1220 -61.4790 238° Southwest 406 467 32,000  Level FlightAware
11:23AM 46.0830 -61.5720 239° Southwest 406 467 32,000  Level FlightAware
11:24AM 46.0460 -61.6600 239° Southwest 407 468 32,000  Level FlightAware
11:25AM 46.0060 -61.7540 239° Southwest 407 468 32,000  Level FlightAware
11:25AM 45.9720 -61.8320 238° Southwest 407 468 32,000  Level FlightAware
11:26AM 45.9380 -61.9100 238° Southwest 407 468 32,000  Level FlightAware
11:27AM 45.9040 -61.9880 238° Southwest 407 468 32,000  Level FlightAware
11:27AM 45.8700 -62.0660 238° Southwest 407 468 32,000  Level FlightAware
11:28AM 45.8270 -62.1640 238° Southwest 407 468 32,000  Level FlightAware
11:29AM 45.7930 -62.2410 238° Southwest 407 468 32,000  Level FlightAware
11:29AM 45.7600 -62.3190 239° Southwest 407 468 32,000  Level FlightAware
11:30AM 45.7260 -62.3970 238° Southwest 407 468 32,000  Level FlightAware
11:31AM 45.6920 -62.4750 238° Southwest 407 468 32,000  Level FlightAware
11:32AM 45.6490 -62.5720 238° Southwest 407 468 32,000  Level FlightAware
11:32AM 45.6150 -62.6500 238° Southwest 407 468 32,000  Level FlightAware
11:33AM 45.5810 -62.7270 238° Southwest 407 468 32,000  Level FlightAware
11:34AM 45.5470 -62.8050 238° Southwest 407 468 32,000  Level FlightAware
11:37AM 45.2860 -63.4050 238° Southwest 32,000  Level FlightAware
11:38AM 45.2220 -63.5450 237° Southwest 411 473 32,000  Level FlightAware
11:42AM 44.9310 -64.1840 237° Southwest 410 472 32,000  Level FlightAware
11:44AM 44.8310 -64.4000 237° Southwest 411 473 32,000  Level FlightAware
11:45AM 44.7830 -64.5030 237° Southwest 411 473 32,000  Level FlightAware
11:45AM 44.7420 -64.5900 236° Southwest 412 474 32,000  Level FlightAware
11:46AM 44.6990 -64.6810 236° Southwest 413 475 32,000  Level FlightAware
11:47AM 44.6570 -64.7720 237° Southwest 413 475 32,000  Level FlightAware
11:47AM 44.6110 -64.8700 237° Southwest 414 476 32,000  Level FlightAware
11:48AM 44.5680 -64.9590 236° Southwest 414 476 32,000  Level FlightAware
11:49AM 44.5200 -65.0610 237° Southwest 415 478 32,000  Level FlightAware
11:49AM 44.4770 -65.1520 237° Southwest 416 479 32,000  Level FlightAware
11:50AM 44.4300 -65.2490 236° Southwest 416 479 32,000  Level FlightAware
11:51AM 44.3860 -65.3400 236° Southwest 417 480 32,000  Level FlightAware
11:52AM 44.3390 -65.4380 236° Southwest 417 480 32,000  Level FlightAware
11:52AM 44.2960 -65.5280 236° Southwest 417 480 32,000  Level FlightAware
11:53AM 44.2500 -65.6210 235° Southwest 417 480 32,000  Level FlightAware
11:54AM 44.2020 -65.7200 236° Southwest 416 479 32,000  Level FlightAware
11:54AM 44.1710 -65.7850 236° Southwest 416 479 32,000  Level FlightAware
11:55AM 44.1130 -65.9030 236° Southwest 413 475 32,000  Level FlightAware
11:56AM 44.0690 -65.9930 236° Southwest 413 475 32,000  Level FlightAware
11:56AM 44.0260 -66.0790 235° Southwest 413 475 32,000  Level FlightAware
11:57AM 43.9820 -66.1690 236° Southwest 412 474 32,000  Level FlightAware
11:58AM 43.9320 -66.2700 236° Southwest 412 474 32,000  Level FlightAware
11:59AM 43.8830 -66.3680 235° Southwest 413 475 32,000  Level FlightAware
11:59AM 43.8390 -66.4570 236° Southwest 413 475 32,000  Level FlightAware
12:00PM 43.7960 -66.5430 235° Southwest 413 475 32,000  Level FlightAware
12:01PM 43.7450 -66.6430 235° Southwest 413 475 32,000  Level FlightAware
12:01PM 43.7010 -66.7310 235° Southwest 418 481 32,000  Level FlightAware
12:02PM 43.6570 -66.8190 235° Southwest 419 482 32,000  Level FlightAware
12:06PM 43.4300 -67.3210 238° Southwest 423 487 32,000  Level FlightAware
12:07PM 43.3880 -67.4200 240° Southwest 424 488 32,000  Level FlightAware
12:07PM 43.3460 -67.5180 240° Southwest 424 488 32,000  Level FlightAware
12:08PM 43.3060 -67.6130 240° Southwest 421 484 32,000  Level FlightAware
12:09PM 43.2610 -67.7170 239° Southwest 420 483 32,000  Level FlightAware
12:09PM 43.2190 -67.8140 239° Southwest 423 487 32,000  Level FlightAware
12:10PM 43.1750 -67.9170 240° Southwest 421 484 32,000  Level FlightAware
12:11PM 43.1400 -67.9960 239° Southwest 420 483 32,000  Level FlightAware
12:11PM 43.1060 -68.0740 239° Southwest 420 483 32,000  Level FlightAware
12:12PM 43.0470 -68.2140 240° Southwest 416 479 32,000  Level FlightAware
12:13PM 42.9950 -68.3310 239° Southwest 415 478 32,000  Level FlightAware
12:14PM 42.9580 -68.4150 239° Southwest 416 479 32,000  Level FlightAware
12:14PM 42.9110 -68.5220 239° Southwest 415 478 32,000  Level FlightAware
12:15PM 42.8850 -68.5820 239° Southwest 416 479 32,000  Level FlightAware
12:16PM 42.8260 -68.7150 239° Southwest 416 479 32,000  Level FlightAware
12:17PM 42.7890 -68.7980 239° Southwest 412 474 32,000  Level FlightAware
12:17PM 42.7550 -68.8730 238° Southwest 411 473 32,000  Level FlightAware
12:18PM 42.6880 -69.0230 239° Southwest 410 472 32,000  Level FlightAware
12:19PM 42.6500 -69.1080 239° Southwest 410 472 32,000  Level FlightAware
12:20PM 42.6070 -69.2050 239° Southwest 407 468 32,000  Level FlightAware
12:20PM 42.5660 -69.2940 238° Southwest 407 468 32,000  Level FlightAware
12:21PM 42.5240 -69.3880 239° Southwest 408 470 32,000  Level FlightAware
12:22PM 42.4790 -69.4860 238° Southwest 408 470 32,000  Level FlightAware
12:22PM 42.4430 -69.5660 239° Southwest 408 470 32,000  Level FlightAware
12:23PM 42.3940 -69.6720 238° Southwest 409 471 32,000  Level FlightAware
12:24PM 42.3560 -69.7560 239° Southwest 409 471 32,000  Level FlightAware
12:24PM 42.3130 -69.8480 238° Southwest 410 472 32,000  Level FlightAware
12:25PM 42.2680 -69.9460 238° Southwest 411 473 32,000  Level FlightAware
12:26PM 42.2270 -70.0350 238° Southwest 412 474 32,000  Level FlightAware
12:27PM 42.1890 -70.1170 238° Southwest 412 474 32,000  Level FlightAware
12:27PM 42.1420 -70.2170 238° Southwest 406 467 32,000  Level FlightAware
12:28PM 42.1040 -70.3000 238° Southwest 407 468 32,000  Level FlightAware
12:28PM 42.0860 -70.3820 254° West 423 487 32,000  Level FlightAware
12:29PM 42.0930 -70.4890 275° West 437 503 32,000 -300 Level FlightAware
12:30PM 42.1030 -70.5930 277° West 434 499 31,600 -600 Descending FlightAware
12:31PM 42.1150 -70.7130 278° West 420 483 31,200 -1,080 Descending FlightAware
12:32PM 42.0880 -70.9420 261° West 367 422 29,100 -1,380 Descending FlightAware
12:33PM 42.0410 -71.0040 224° Southwest 363 418 28,100 -1,500 Descending FlightAware
12:34PM 41.9920 -71.0630 222° Southwest 363 418 27,100 -1,500 Descending FlightAware
12:34PM 41.9360 -71.1310 222° Southwest 361 415 26,000 -1,440 Descending FlightAware
12:35PM 41.8870 -71.1920 223° Southwest 359 413 25,100 -1,380 Descending FlightAware
12:36PM 41.8300 -71.2610 222° Southwest 359 413 24,100 -780 Descending FlightAware
12:36PM 41.7800 -71.3220 222° Southwest 383 441 24,000 -120 Descending FlightAware
12:37PM 41.7260 -71.3880 222° Southwest 386 444 24,000  Level FlightAware
12:38PM 41.6690 -71.4570 222° Southwest 387 445 24,000  Level FlightAware
12:38PM 41.6140 -71.5240 222° Southwest 387 445 24,000  Level FlightAware
12:39PM 41.5550 -71.5940 222° Southwest 387 445 24,000  Level FlightAware
12:40PM 41.5070 -71.6520 222° Southwest 388 447 24,000  Level FlightAware
12:41PM 41.4490 -71.7220 222° Southwest 390 449 24,000  Level FlightAware
12:41PM 41.3890 -71.7930 222° Southwest 381 438 24,000  Level FlightAware
12:42PM 41.3170 -71.8800 222° Southwest 378 435 24,000  Level FlightAware
12:43PM 41.3060 -71.8920 219° Southwest 378 435 24,000  Level FlightAware
12:44PM 41.2510 -71.9550 221° Southwest 378 435 24,000 -1,380 Level FlightAware
12:44PM 41.1580 -72.0560 219° Southwest 375 432 22,100 -1,380 Descending FlightAware
12:45PM 41.1020 -72.1160 219° Southwest 375 432 22,100  Level FlightAware
12:46PM 41.0560 -72.1650 219° Southwest 375 432 22,100 -3,060 Level FlightAware
12:46PM 41.0190 -72.2900 249° West 345 397 17,800 -4,620 Descending FlightAware
12:47PM 40.9870 -72.3630 240° Southwest 362 417 15,600 -2,580 Descending FlightAware
12:48PM 40.9460 -72.4560 240° Southwest 355 409 14,200 -1,200 Descending FlightAware
12:50PM 40.8260 -72.7230 239° Southwest 301 346 11,600 -840 Descending FlightAware
12:51PM 40.7980 -72.7850 239° Southwest 298 343 11,600 -720 Level FlightAware
12:52PM 40.7770 -72.8640 251° West 297 342 10,600 -1,380 Descending FlightAware
12:52PM 40.7630 -72.9340 255° West 296 341 9,700 -1,320 Descending FlightAware
12:53PM 40.7530 -72.9860 256° West 296 341 9,100 -1,200 Descending FlightAware
12:53PM 40.7440 -73.0300 255° West 296 341 8,600 -1,200 Descending FlightAware
12:54PM 40.7350 -73.0810 257° West 293 337 8,000 -1,200 Descending FlightAware
12:54PM 40.7220 -73.1250 249° West 284 327 7,500 -1,200 Descending FlightAware
12:55PM 40.7090 -73.1450 229° Southwest 287 330 7,200 -1,380 Descending FlightAware
12:55PM 40.6800 -73.1870 228° Southwest 286 329 6,500 -1,440 Descending FlightAware
12:55PM 40.6580 -73.2190 228° Southwest 285 328 5,900 -1,320 Descending FlightAware
12:56PM 40.6310 -73.2570 227° Southwest 282 325 5,300 -1,200 Descending FlightAware
12:56PM 40.6060 -73.2920 227° Southwest 281 323 4,700 -1,200 Descending FlightAware
12:57PM 40.5840 -73.3260 230° Southwest 280 322 4,200 -1,320 Descending FlightAware
12:57PM 40.5580 -73.3650 229° Southwest 279 321 3,500 -1,320 Descending FlightAware
12:58PM 40.5390 -73.3970 232° Southwest 280 322 3,000 -1,200 Descending FlightAware
12:58PM 40.5280 -73.4200 238° Southwest 281 323 2,700 -420 Descending FlightAware
12:59PM 40.5070 -73.4670 240° Southwest 283 326 2,700  Level FlightAware
12:59PM 40.4910 -73.5020 239° Southwest 283 326 2,700  Level FlightAware
12:59PM 40.4710 -73.5470 240° Southwest 284 327 2,700  Level FlightAware
01:00PM 40.4500 -73.5910 238° Southwest 282 325 2,700  Level FlightAware
01:00PM 40.4350 -73.6260 241° Southwest 283 326 2,700 -120 Level FlightAware
01:01PM 40.4140 -73.6690 237° Southwest 280 322 2,600 -780 Descending FlightAware
01:01PM 40.3920 -73.7050 231° Southwest 282 325 2,000 -1,020 Descending FlightAware
01:02PM 40.3670 -73.7440 230° Southwest 275 316 1,700 -300 Descending FlightAware
01:02PM 40.3440 -73.7780 228° Southwest 245 282 1,700  Level FlightAware
01:03PM 40.3360 -73.8080 251° West 221 254 1,700  Level FlightAware
01:03PM 40.3340 -73.8330 264° West 207 238 1,700  Level FlightAware
01:03PM 40.3330 -73.8630 268° West 207 238 1,700  Level FlightAware
01:04PM 40.3410 -73.8970 287° West 200 230 1,700  Level FlightAware
01:04PM 40.3500 -73.9250 293° West 184 212 1,700  Level FlightAware
01:05PM 40.3600 -73.9480 300° West 182 209 1,700  Level FlightAware
01:05PM 40.3720 -73.9600 323° Northwest 165 190 1,700  Level FlightAware
01:05PM 40.3750 -73.9600 360° North 161 185 1,700  Level FlightAware
01:06PM 40.3910 -73.9530 18° North 152 175 1,700  Level FlightAware
01:06PM 40.4060 -73.9420 29° Northeast 140 161 1,700  Level FlightAware
01:06PM 40.4230 -73.9290 30° Northeast 142 163 1,700  Level FlightAware
01:07PM 40.4340 -73.9200 32° Northeast 141 162 1,700  Level FlightAware
01:08PM 40.4620 -73.8980 31° Northeast 140 161 1,700  Level FlightAware
01:08PM 40.4790 -73.8840 32° Northeast 140 161 1,700  Level FlightAware
01:09PM 40.4930 -73.8740 29° Northeast 140 161 1,700  Level FlightAware
01:09PM 40.5020 -73.8670 31° Northeast 141 162 1,700  Level FlightAware
01:09PM 40.5150 -73.8560 33° Northeast 141 162 1,700  Level FlightAware
01:10PM 40.5330 -73.8420 31° Northeast 142 163 1,700 -240 Level FlightAware
01:10PM 40.5500 -73.8290 30° Northeast 138 159 1,500 -600 Descending FlightAware
01:11PM 40.5620 -73.8200 30° Northeast 126 145 1,200 -780 Descending FlightAware
01:11PM 40.5780 -73.8080 30° Northeast 126 145 800 -720 Descending FlightAware
01:12PM 40.5930 -73.7950 33° Northeast 125 144 500 -660 Descending FlightAware
01:12PM 40.6060 -73.7860 28° Northeast 126 145 200 -720 Descending FlightAware
01:12PM 40.6130 -73.7800 33° Northeast 124 143 -840 Descending FlightAware
01:13PM 40.6280 -73.7690 29° Northeast 128 147  Level FlightAware